sensor_id;sensor_type;location;lat;lon;timestamp;P1;durP1;ratioP1;P2;durP2;ratioP2
13795;SDS011;40911;51.552;9.874;2023-09-08T00:00:28;5.10;;;4.35;;
13795;SDS011;40911;51.552;9.874;2023-09-08T00:05:15;5.35;;;4.13;;
13795;SDS011;40911;51.552;9.874;2023-09-08T00:10:00;6.22;;;4.40;;
13795;SDS011;40911;51.552;9.874;2023-09-08T00:14:43;6.68;;;4.32;;
13795;SDS011;40911;51.552;9.874;2023-09-08T00:17:05;5.65;;;4.45;;
13795;SDS011;40911;51.552;9.874;2023-09-08T00:21:48;7.25;;;4.20;;
13795;SDS011;40911;51.552;9.874;2023-09-08T00:24:11;6.60;;;4.18;;
13795;SDS011;40911;51.552;9.874;2023-09-08T00:26:33;5.22;;;4.45;;
13795;SDS011;40911;51.552;9.874;2023-09-08T00:28:56;6.78;;;4.82;;
13795;SDS011;40911;51.552;9.874;2023-09-08T00:31:17;4.82;;;4.32;;
13795;SDS011;40911;51.552;9.874;2023-09-08T00:36:04;5.38;;;4.40;;
13795;SDS011;40911;51.552;9.874;2023-09-08T00:38:26;11.75;;;4.85;;
13795;SDS011;40911;51.552;9.874;2023-09-08T00:40:49;7.20;;;4.57;;
13795;SDS011;40911;51.552;9.874;2023-09-08T00:43:10;5.45;;;4.57;;
13795;SDS011;40911;51.552;9.874;2023-09-08T00:45:32;8.70;;;4.40;;
13795;SDS011;40911;51.552;9.874;2023-09-08T00:47:59;8.30;;;4.63;;
13795;SDS011;40911;51.552;9.874;2023-09-08T00:52:42;8.32;;;4.32;;
13795;SDS011;40911;51.552;9.874;2023-09-08T00:57:27;5.55;;;4.38;;
13795;SDS011;40911;51.552;9.874;2023-09-08T00:59:49;7.90;;;4.85;;
13795;SDS011;40911;51.552;9.874;2023-09-08T01:02:11;6.30;;;4.78;;
13795;SDS011;40911;51.552;9.874;2023-09-08T01:04:33;7.32;;;4.97;;
13795;SDS011;40911;51.552;9.874;2023-09-08T01:06:55;5.45;;;4.80;;
13795;SDS011;40911;51.552;9.874;2023-09-08T01:09:17;6.72;;;4.82;;
13795;SDS011;40911;51.552;9.874;2023-09-08T01:11:39;8.27;;;5.05;;
13795;SDS011;40911;51.552;9.874;2023-09-08T01:14:03;7.57;;;4.95;;
13795;SDS011;40911;51.552;9.874;2023-09-08T01:16:25;7.63;;;4.40;;
13795;SDS011;40911;51.552;9.874;2023-09-08T01:26:37;5.60;;;4.82;;
13795;SDS011;40911;51.552;9.874;2023-09-08T01:29:02;6.47;;;5.00;;
13795;SDS011;40911;51.552;9.874;2023-09-08T01:31:27;6.22;;;4.70;;
13795;SDS011;40911;51.552;9.874;2023-09-08T01:36:10;5.60;;;4.72;;
13795;SDS011;40911;51.552;9.874;2023-09-08T01:38:32;8.75;;;4.97;;
13795;SDS011;40911;51.552;9.874;2023-09-08T01:43:16;5.80;;;4.57;;
13795;SDS011;40911;51.552;9.874;2023-09-08T01:45:38;7.60;;;4.75;;
13795;SDS011;40911;51.552;9.874;2023-09-08T01:50:21;6.80;;;4.60;;
13795;SDS011;40911;51.552;9.874;2023-09-08T01:52:44;10.15;;;5.32;;
13795;SDS011;40911;51.552;9.874;2023-09-08T01:57:28;7.90;;;5.03;;
13795;SDS011;40911;51.552;9.874;2023-09-08T02:02:13;10.07;;;5.00;;
13795;SDS011;40911;51.552;9.874;2023-09-08T02:04:35;5.78;;;4.65;;
13795;SDS011;40911;51.552;9.874;2023-09-08T02:09:18;12.77;;;4.88;;
13795;SDS011;40911;51.552;9.874;2023-09-08T02:14:02;6.10;;;4.75;;
13795;SDS011;40911;51.552;9.874;2023-09-08T02:18:46;5.93;;;4.32;;
13795;SDS011;40911;51.552;9.874;2023-09-08T02:23:29;6.75;;;5.00;;
13795;SDS011;40911;51.552;9.874;2023-09-08T02:28:13;7.35;;;4.97;;
13795;SDS011;40911;51.552;9.874;2023-09-08T02:32:58;10.82;;;5.10;;
13795;SDS011;40911;51.552;9.874;2023-09-08T02:35:20;7.53;;;5.35;;
13795;SDS011;40911;51.552;9.874;2023-09-08T02:37:41;6.43;;;4.93;;
13795;SDS011;40911;51.552;9.874;2023-09-08T02:42:26;8.15;;;5.30;;
13795;SDS011;40911;51.552;9.874;2023-09-08T02:47:09;7.30;;;5.30;;
13795;SDS011;40911;51.552;9.874;2023-09-08T02:49:32;7.05;;;5.03;;
13795;SDS011;40911;51.552;9.874;2023-09-08T02:51:54;7.20;;;5.00;;
13795;SDS011;40911;51.552;9.874;2023-09-08T02:56:37;5.50;;;5.00;;
13795;SDS011;40911;51.552;9.874;2023-09-08T03:01:20;5.55;;;4.78;;
13795;SDS011;40911;51.552;9.874;2023-09-08T03:03:42;6.47;;;4.97;;
13795;SDS011;40911;51.552;9.874;2023-09-08T03:06:06;9.68;;;5.15;;
13795;SDS011;40911;51.552;9.874;2023-09-08T03:08:27;6.05;;;4.97;;
13795;SDS011;40911;51.552;9.874;2023-09-08T03:13:10;7.15;;;5.38;;
13795;SDS011;40911;51.552;9.874;2023-09-08T03:17:55;5.75;;;4.78;;
13795;SDS011;40911;51.552;9.874;2023-09-08T03:20:18;5.68;;;4.32;;
13795;SDS011;40911;51.552;9.874;2023-09-08T03:22:41;7.28;;;5.45;;
13795;SDS011;40911;51.552;9.874;2023-09-08T03:25:03;6.68;;;4.82;;
13795;SDS011;40911;51.552;9.874;2023-09-08T03:27:26;7.32;;;5.72;;
13795;SDS011;40911;51.552;9.874;2023-09-08T03:32:09;7.25;;;5.13;;
13795;SDS011;40911;51.552;9.874;2023-09-08T03:34:31;5.65;;;4.95;;
13795;SDS011;40911;51.552;9.874;2023-09-08T03:36:54;6.78;;;4.93;;
13795;SDS011;40911;51.552;9.874;2023-09-08T03:39:17;7.82;;;5.32;;
13795;SDS011;40911;51.552;9.874;2023-09-08T03:41:39;6.05;;;5.05;;
13795;SDS011;40911;51.552;9.874;2023-09-08T03:46:23;7.30;;;5.05;;
13795;SDS011;40911;51.552;9.874;2023-09-08T03:48:45;7.70;;;5.72;;
13795;SDS011;40911;51.552;9.874;2023-09-08T03:53:28;6.50;;;5.40;;
13795;SDS011;40911;51.552;9.874;2023-09-08T03:58:13;6.22;;;5.28;;
13795;SDS011;40911;51.552;9.874;2023-09-08T04:00:35;6.55;;;5.32;;
13795;SDS011;40911;51.552;9.874;2023-09-08T04:05:19;9.07;;;5.70;;
13795;SDS011;40911;51.552;9.874;2023-09-08T04:07:40;9.13;;;5.53;;
13795;SDS011;40911;51.552;9.874;2023-09-08T04:12:25;6.00;;;5.00;;
13795;SDS011;40911;51.552;9.874;2023-09-08T04:14:47;10.98;;;6.00;;
13795;SDS011;40911;51.552;9.874;2023-09-08T04:17:09;7.47;;;5.38;;
13795;SDS011;40911;51.552;9.874;2023-09-08T04:21:53;7.63;;;5.70;;
13795;SDS011;40911;51.552;9.874;2023-09-08T04:26:36;6.57;;;5.63;;
13795;SDS011;40911;51.552;9.874;2023-09-08T04:31:21;11.10;;;5.30;;
13795;SDS011;40911;51.552;9.874;2023-09-08T04:36:04;9.05;;;5.55;;
13795;SDS011;40911;51.552;9.874;2023-09-08T04:38:26;6.72;;;5.70;;
13795;SDS011;40911;51.552;9.874;2023-09-08T04:43:09;8.10;;;5.50;;
13795;SDS011;40911;51.552;9.874;2023-09-08T04:47:54;7.28;;;5.38;;
13795;SDS011;40911;51.552;9.874;2023-09-08T04:52:37;7.32;;;5.82;;
13795;SDS011;40911;51.552;9.874;2023-09-08T04:57:20;9.18;;;6.38;;
13795;SDS011;40911;51.552;9.874;2023-09-08T05:02:04;12.48;;;6.25;;
13795;SDS011;40911;51.552;9.874;2023-09-08T05:04:26;7.13;;;5.90;;
13795;SDS011;40911;51.552;9.874;2023-09-08T05:09:09;8.30;;;5.60;;
13795;SDS011;40911;51.552;9.874;2023-09-08T05:11:31;8.85;;;6.03;;
13795;SDS011;40911;51.552;9.874;2023-09-08T05:13:53;9.45;;;5.45;;
13795;SDS011;40911;51.552;9.874;2023-09-08T05:16:15;7.57;;;5.45;;
13795;SDS011;40911;51.552;9.874;2023-09-08T05:18:40;9.07;;;5.57;;
13795;SDS011;40911;51.552;9.874;2023-09-08T05:21:02;7.45;;;5.97;;
13795;SDS011;40911;51.552;9.874;2023-09-08T05:23:24;7.68;;;5.43;;
13795;SDS011;40911;51.552;9.874;2023-09-08T05:28:07;7.60;;;5.80;;
13795;SDS011;40911;51.552;9.874;2023-09-08T05:32:50;7.82;;;6.05;;
13795;SDS011;40911;51.552;9.874;2023-09-08T05:37:35;9.20;;;6.53;;
13795;SDS011;40911;51.552;9.874;2023-09-08T05:42:18;11.07;;;6.00;;
13795;SDS011;40911;51.552;9.874;2023-09-08T05:47:01;9.38;;;6.13;;
13795;SDS011;40911;51.552;9.874;2023-09-08T05:49:23;9.90;;;7.00;;
13795;SDS011;40911;51.552;9.874;2023-09-08T05:54:08;9.77;;;6.60;;
13795;SDS011;40911;51.552;9.874;2023-09-08T05:58:52;9.23;;;6.53;;
13795;SDS011;40911;51.552;9.874;2023-09-08T06:03:36;9.45;;;6.50;;
13795;SDS011;40911;51.552;9.874;2023-09-08T06:08:20;9.10;;;6.57;;
13795;SDS011;40911;51.552;9.874;2023-09-08T06:10:42;10.43;;;7.03;;
13795;SDS011;40911;51.552;9.874;2023-09-08T06:15:25;10.05;;;6.72;;
13795;SDS011;40911;51.552;9.874;2023-09-08T06:20:09;9.48;;;6.70;;
13795;SDS011;40911;51.552;9.874;2023-09-08T06:22:32;11.07;;;6.53;;
13795;SDS011;40911;51.552;9.874;2023-09-08T06:24:55;12.00;;;6.90;;
13795;SDS011;40911;51.552;9.874;2023-09-08T06:27:17;12.07;;;7.80;;
13795;SDS011;40911;51.552;9.874;2023-09-08T06:29:39;13.57;;;7.55;;
13795;SDS011;40911;51.552;9.874;2023-09-08T06:32:03;12.02;;;7.35;;
13795;SDS011;40911;51.552;9.874;2023-09-08T06:34:26;12.52;;;7.18;;
13795;SDS011;40911;51.552;9.874;2023-09-08T06:39:09;10.18;;;6.88;;
13795;SDS011;40911;51.552;9.874;2023-09-08T06:43:53;10.60;;;6.63;;
13795;SDS011;40911;51.552;9.874;2023-09-08T06:48:37;11.93;;;6.65;;
13795;SDS011;40911;51.552;9.874;2023-09-08T06:53:20;11.30;;;7.00;;
13795;SDS011;40911;51.552;9.874;2023-09-08T06:58:05;13.30;;;7.25;;
13795;SDS011;40911;51.552;9.874;2023-09-08T07:00:26;12.50;;;7.68;;
13795;SDS011;40911;51.552;9.874;2023-09-08T07:05:10;9.25;;;7.07;;
13795;SDS011;40911;51.552;9.874;2023-09-08T07:07:32;10.75;;;7.93;;
13795;SDS011;40911;51.552;9.874;2023-09-08T07:09:54;11.20;;;7.43;;
13795;SDS011;40911;51.552;9.874;2023-09-08T07:14:38;12.02;;;7.85;;
13795;SDS011;40911;51.552;9.874;2023-09-08T07:17:00;11.32;;;7.20;;
13795;SDS011;40911;51.552;9.874;2023-09-08T07:19:22;14.27;;;7.75;;
13795;SDS011;40911;51.552;9.874;2023-09-08T07:21:44;14.07;;;6.93;;
13795;SDS011;40911;51.552;9.874;2023-09-08T07:24:06;14.00;;;6.88;;
13795;SDS011;40911;51.552;9.874;2023-09-08T07:26:28;12.23;;;7.07;;
13795;SDS011;40911;51.552;9.874;2023-09-08T07:28:50;11.05;;;7.32;;
13795;SDS011;40911;51.552;9.874;2023-09-08T07:31:13;11.77;;;7.10;;
13795;SDS011;40911;51.552;9.874;2023-09-08T07:33:34;11.80;;;7.30;;
13795;SDS011;40911;51.552;9.874;2023-09-08T07:35:57;12.00;;;6.93;;
13795;SDS011;40911;51.552;9.874;2023-09-08T07:38:18;10.52;;;7.63;;
13795;SDS011;40911;51.552;9.874;2023-09-08T07:40:41;8.18;;;6.75;;
13795;SDS011;40911;51.552;9.874;2023-09-08T07:43:03;14.90;;;6.70;;
13795;SDS011;40911;51.552;9.874;2023-09-08T07:45:25;9.18;;;6.13;;
13795;SDS011;40911;51.552;9.874;2023-09-08T07:47:48;9.80;;;6.20;;
13795;SDS011;40911;51.552;9.874;2023-09-08T07:50:16;8.40;;;5.55;;
13795;SDS011;40911;51.552;9.874;2023-09-08T07:52:41;11.77;;;6.60;;
13795;SDS011;40911;51.552;9.874;2023-09-08T07:55:02;9.23;;;6.20;;
13795;SDS011;40911;51.552;9.874;2023-09-08T07:57:25;10.82;;;6.28;;
13795;SDS011;40911;51.552;9.874;2023-09-08T07:59:46;8.35;;;5.90;;
13795;SDS011;40911;51.552;9.874;2023-09-08T08:02:08;12.45;;;5.55;;
13795;SDS011;40911;51.552;9.874;2023-09-08T08:04:32;9.27;;;5.63;;
13795;SDS011;40911;51.552;9.874;2023-09-08T08:06:54;6.47;;;5.65;;
13795;SDS011;40911;51.552;9.874;2023-09-08T08:09:15;6.22;;;5.38;;
13795;SDS011;40911;51.552;9.874;2023-09-08T08:11:37;6.47;;;5.10;;
13795;SDS011;40911;51.552;9.874;2023-09-08T08:13:59;8.45;;;4.80;;
13795;SDS011;40911;51.552;9.874;2023-09-08T08:16:21;8.77;;;5.20;;
13795;SDS011;40911;51.552;9.874;2023-09-08T08:18:42;8.50;;;4.75;;
13795;SDS011;40911;51.552;9.874;2023-09-08T08:21:06;9.18;;;5.80;;
13795;SDS011;40911;51.552;9.874;2023-09-08T08:23:27;8.35;;;5.70;;
13795;SDS011;40911;51.552;9.874;2023-09-08T08:25:49;11.18;;;5.30;;
13795;SDS011;40911;51.552;9.874;2023-09-08T08:28:11;9.98;;;5.10;;
13795;SDS011;40911;51.552;9.874;2023-09-08T08:30:33;9.00;;;5.13;;
13795;SDS011;40911;51.552;9.874;2023-09-08T08:32:55;7.88;;;5.10;;
13795;SDS011;40911;51.552;9.874;2023-09-08T08:35:17;7.70;;;5.68;;
13795;SDS011;40911;51.552;9.874;2023-09-08T08:37:40;6.03;;;4.63;;
13795;SDS011;40911;51.552;9.874;2023-09-08T08:40:02;6.95;;;5.03;;
13795;SDS011;40911;51.552;9.874;2023-09-08T08:42:30;7.03;;;5.22;;
13795;SDS011;40911;51.552;9.874;2023-09-08T08:44:52;8.90;;;5.13;;
13795;SDS011;40911;51.552;9.874;2023-09-08T08:47:14;6.80;;;4.72;;
13795;SDS011;40911;51.552;9.874;2023-09-08T08:49:37;6.53;;;4.93;;
13795;SDS011;40911;51.552;9.874;2023-09-08T08:52:01;8.07;;;5.18;;
13795;SDS011;40911;51.552;9.874;2023-09-08T08:54:28;7.63;;;4.90;;
13795;SDS011;40911;51.552;9.874;2023-09-08T08:56:50;5.70;;;4.80;;
13795;SDS011;40911;51.552;9.874;2023-09-08T08:59:12;7.53;;;4.97;;
13795;SDS011;40911;51.552;9.874;2023-09-08T09:01:34;7.55;;;4.95;;
13795;SDS011;40911;51.552;9.874;2023-09-08T09:03:56;7.55;;;5.00;;
13795;SDS011;40911;51.552;9.874;2023-09-08T09:06:19;6.28;;;4.80;;
13795;SDS011;40911;51.552;9.874;2023-09-08T09:08:41;6.40;;;4.70;;
13795;SDS011;40911;51.552;9.874;2023-09-08T09:11:06;5.50;;;4.50;;
13795;SDS011;40911;51.552;9.874;2023-09-08T09:13:27;7.72;;;4.57;;
13795;SDS011;40911;51.552;9.874;2023-09-08T09:15:49;8.23;;;4.80;;
13795;SDS011;40911;51.552;9.874;2023-09-08T09:18:12;6.43;;;4.43;;
13795;SDS011;40911;51.552;9.874;2023-09-08T09:20:33;5.60;;;4.70;;
13795;SDS011;40911;51.552;9.874;2023-09-08T09:22:55;5.70;;;4.90;;
13795;SDS011;40911;51.552;9.874;2023-09-08T09:25:21;7.65;;;4.20;;
13795;SDS011;40911;51.552;9.874;2023-09-08T09:27:44;6.57;;;4.50;;
13795;SDS011;40911;51.552;9.874;2023-09-08T09:30:11;10.70;;;4.80;;
13795;SDS011;40911;51.552;9.874;2023-09-08T09:32:33;5.85;;;4.80;;
13795;SDS011;40911;51.552;9.874;2023-09-08T09:34:56;5.85;;;4.35;;
13795;SDS011;40911;51.552;9.874;2023-09-08T09:37:21;8.43;;;4.70;;
13795;SDS011;40911;51.552;9.874;2023-09-08T09:39:42;5.80;;;4.40;;
13795;SDS011;40911;51.552;9.874;2023-09-08T09:42:09;6.32;;;4.22;;
13795;SDS011;40911;51.552;9.874;2023-09-08T09:44:33;6.70;;;4.35;;
13795;SDS011;40911;51.552;9.874;2023-09-08T09:46:55;6.15;;;4.70;;
13795;SDS011;40911;51.552;9.874;2023-09-08T09:49:17;5.90;;;4.32;;
13795;SDS011;40911;51.552;9.874;2023-09-08T09:51:42;6.78;;;4.40;;
13795;SDS011;40911;51.552;9.874;2023-09-08T09:54:05;6.13;;;4.80;;
13795;SDS011;40911;51.552;9.874;2023-09-08T09:56:27;6.88;;;4.20;;
13795;SDS011;40911;51.552;9.874;2023-09-08T09:58:49;6.03;;;4.50;;
13795;SDS011;40911;51.552;9.874;2023-09-08T10:01:15;7.53;;;4.53;;
13795;SDS011;40911;51.552;9.874;2023-09-08T10:03:38;5.53;;;4.63;;
13795;SDS011;40911;51.552;9.874;2023-09-08T10:06:00;7.50;;;4.60;;
13795;SDS011;40911;51.552;9.874;2023-09-08T10:08:23;7.55;;;4.40;;
13795;SDS011;40911;51.552;9.874;2023-09-08T10:10:45;5.28;;;4.22;;
13795;SDS011;40911;51.552;9.874;2023-09-08T10:13:08;7.57;;;4.70;;
13795;SDS011;40911;51.552;9.874;2023-09-08T10:15:33;6.57;;;4.47;;
13795;SDS011;40911;51.552;9.874;2023-09-08T10:17:56;7.35;;;4.40;;
13795;SDS011;40911;51.552;9.874;2023-09-08T10:20:20;7.07;;;4.22;;
13795;SDS011;40911;51.552;9.874;2023-09-08T10:22:44;5.97;;;4.38;;
13795;SDS011;40911;51.552;9.874;2023-09-08T10:25:08;4.97;;;4.03;;
13795;SDS011;40911;51.552;9.874;2023-09-08T10:27:30;9.82;;;4.45;;
13795;SDS011;40911;51.552;9.874;2023-09-08T10:29:52;5.78;;;4.60;;
13795;SDS011;40911;51.552;9.874;2023-09-08T10:32:14;12.07;;;4.60;;
13795;SDS011;40911;51.552;9.874;2023-09-08T10:34:39;6.30;;;4.35;;
13795;SDS011;40911;51.552;9.874;2023-09-08T10:37:02;5.38;;;4.32;;
13795;SDS011;40911;51.552;9.874;2023-09-08T10:39:28;7.90;;;4.50;;
13795;SDS011;40911;51.552;9.874;2023-09-08T10:41:52;6.18;;;4.10;;
13795;SDS011;40911;51.552;9.874;2023-09-08T10:44:45;8.48;;;3.97;;
13795;SDS011;40911;51.552;9.874;2023-09-08T10:47:18;5.57;;;4.10;;
13795;SDS011;40911;51.552;9.874;2023-09-08T10:49:41;8.45;;;4.10;;
13795;SDS011;40911;51.552;9.874;2023-09-08T10:52:05;6.32;;;4.18;;
13795;SDS011;40911;51.552;9.874;2023-09-08T10:54:40;5.68;;;3.90;;
13795;SDS011;40911;51.552;9.874;2023-09-08T10:57:06;6.18;;;4.25;;
13795;SDS011;40911;51.552;9.874;2023-09-08T10:59:34;10.23;;;4.38;;
13795;SDS011;40911;51.552;9.874;2023-09-08T11:01:56;6.45;;;3.75;;
13795;SDS011;40911;51.552;9.874;2023-09-08T11:04:18;6.60;;;4.00;;
13795;SDS011;40911;51.552;9.874;2023-09-08T11:06:42;5.20;;;3.88;;
13795;SDS011;40911;51.552;9.874;2023-09-08T11:09:05;8.55;;;3.85;;
13795;SDS011;40911;51.552;9.874;2023-09-08T11:11:28;5.35;;;4.20;;
13795;SDS011;40911;51.552;9.874;2023-09-08T11:13:55;5.70;;;4.10;;
13795;SDS011;40911;51.552;9.874;2023-09-08T11:16:17;6.05;;;4.65;;
13795;SDS011;40911;51.552;9.874;2023-09-08T11:18:43;5.32;;;4.00;;
13795;SDS011;40911;51.552;9.874;2023-09-08T11:21:07;6.75;;;3.95;;
13795;SDS011;40911;51.552;9.874;2023-09-08T11:23:31;5.32;;;3.72;;
13795;SDS011;40911;51.552;9.874;2023-09-08T11:25:53;6.38;;;3.55;;
13795;SDS011;40911;51.552;9.874;2023-09-08T11:28:15;4.03;;;3.40;;
13795;SDS011;40911;51.552;9.874;2023-09-08T11:30:37;6.25;;;3.70;;
13795;SDS011;40911;51.552;9.874;2023-09-08T11:32:59;7.43;;;3.13;;
13795;SDS011;40911;51.552;9.874;2023-09-08T11:35:21;4.13;;;3.38;;
13795;SDS011;40911;51.552;9.874;2023-09-08T11:37:42;3.78;;;3.03;;
13795;SDS011;40911;51.552;9.874;2023-09-08T11:40:07;4.18;;;2.88;;
13795;SDS011;40911;51.552;9.874;2023-09-08T11:42:32;4.90;;;3.38;;
13795;SDS011;40911;51.552;9.874;2023-09-08T11:44:56;3.50;;;3.10;;
13795;SDS011;40911;51.552;9.874;2023-09-08T11:47:18;5.43;;;3.40;;
13795;SDS011;40911;51.552;9.874;2023-09-08T11:49:41;3.47;;;2.95;;
13795;SDS011;40911;51.552;9.874;2023-09-08T11:52:04;3.58;;;2.92;;
13795;SDS011;40911;51.552;9.874;2023-09-08T11:54:27;6.28;;;2.88;;
13795;SDS011;40911;51.552;9.874;2023-09-08T11:56:52;3.30;;;3.00;;
13795;SDS011;40911;51.552;9.874;2023-09-08T11:59:15;3.33;;;2.90;;
13795;SDS011;40911;51.552;9.874;2023-09-08T12:01:37;5.70;;;3.08;;
13795;SDS011;40911;51.552;9.874;2023-09-08T12:03:59;3.08;;;2.65;;
13795;SDS011;40911;51.552;9.874;2023-09-08T12:06:23;4.22;;;3.13;;
13795;SDS011;40911;51.552;9.874;2023-09-08T12:08:45;4.88;;;2.92;;
13795;SDS011;40911;51.552;9.874;2023-09-08T12:11:07;3.38;;;2.65;;
13795;SDS011;40911;51.552;9.874;2023-09-08T12:13:32;6.35;;;3.13;;
13795;SDS011;40911;51.552;9.874;2023-09-08T12:15:54;4.75;;;2.47;;
13795;SDS011;40911;51.552;9.874;2023-09-08T12:18:18;5.22;;;2.92;;
13795;SDS011;40911;51.552;9.874;2023-09-08T12:20:40;2.63;;;2.42;;
13795;SDS011;40911;51.552;9.874;2023-09-08T12:23:04;6.68;;;2.35;;
13795;SDS011;40911;51.552;9.874;2023-09-08T12:25:27;3.10;;;2.40;;
13795;SDS011;40911;51.552;9.874;2023-09-08T12:27:51;2.33;;;2.10;;
13795;SDS011;40911;51.552;9.874;2023-09-08T12:30:17;2.15;;;1.95;;
13795;SDS011;40911;51.552;9.874;2023-09-08T12:32:39;2.17;;;1.98;;
13795;SDS011;40911;51.552;9.874;2023-09-08T12:35:02;5.55;;;2.17;;
13795;SDS011;40911;51.552;9.874;2023-09-08T12:37:25;4.32;;;2.20;;
13795;SDS011;40911;51.552;9.874;2023-09-08T12:39:47;2.88;;;2.13;;
13795;SDS011;40911;51.552;9.874;2023-09-08T12:42:09;3.42;;;2.17;;
13795;SDS011;40911;51.552;9.874;2023-09-08T12:44:31;2.42;;;2.10;;
13795;SDS011;40911;51.552;9.874;2023-09-08T12:46:54;2.72;;;2.10;;
13795;SDS011;40911;51.552;9.874;2023-09-08T12:49:16;2.63;;;2.10;;
13795;SDS011;40911;51.552;9.874;2023-09-08T12:51:37;2.88;;;2.22;;
13795;SDS011;40911;51.552;9.874;2023-09-08T12:54:00;3.40;;;2.00;;
13795;SDS011;40911;51.552;9.874;2023-09-08T12:56:21;2.55;;;1.90;;
13795;SDS011;40911;51.552;9.874;2023-09-08T12:58:43;4.07;;;2.00;;
13795;SDS011;40911;51.552;9.874;2023-09-08T13:01:05;3.75;;;2.15;;
13795;SDS011;40911;51.552;9.874;2023-09-08T13:03:28;2.75;;;1.60;;
13795;SDS011;40911;51.552;9.874;2023-09-08T13:05:50;1.77;;;1.67;;
13795;SDS011;40911;51.552;9.874;2023-09-08T13:08:11;2.58;;;1.98;;
13795;SDS011;40911;51.552;9.874;2023-09-08T13:10:35;2.33;;;1.83;;
13795;SDS011;40911;51.552;9.874;2023-09-08T13:12:57;2.88;;;1.92;;
13795;SDS011;40911;51.552;9.874;2023-09-08T13:15:18;2.50;;;2.28;;
13795;SDS011;40911;51.552;9.874;2023-09-08T13:17:40;5.47;;;2.03;;
13795;SDS011;40911;51.552;9.874;2023-09-08T13:20:03;4.10;;;1.77;;
13795;SDS011;40911;51.552;9.874;2023-09-08T13:22:26;2.58;;;1.92;;
13795;SDS011;40911;51.552;9.874;2023-09-08T13:24:48;6.25;;;2.08;;
13795;SDS011;40911;51.552;9.874;2023-09-08T13:27:10;2.17;;;1.98;;
13795;SDS011;40911;51.552;9.874;2023-09-08T13:29:32;2.83;;;2.20;;
13795;SDS011;40911;51.552;9.874;2023-09-08T13:31:54;4.15;;;2.05;;
13795;SDS011;40911;51.552;9.874;2023-09-08T13:34:17;2.40;;;1.85;;
13795;SDS011;40911;51.552;9.874;2023-09-08T13:36:40;2.28;;;1.77;;
13795;SDS011;40911;51.552;9.874;2023-09-08T13:39:01;3.15;;;1.77;;
13795;SDS011;40911;51.552;9.874;2023-09-08T13:41:23;1.83;;;1.70;;
13795;SDS011;40911;51.552;9.874;2023-09-08T13:43:45;2.20;;;1.67;;
13795;SDS011;40911;51.552;9.874;2023-09-08T13:46:07;3.30;;;2.00;;
13795;SDS011;40911;51.552;9.874;2023-09-08T13:48:28;2.72;;;1.85;;
13795;SDS011;40911;51.552;9.874;2023-09-08T13:50:50;4.07;;;1.73;;
13795;SDS011;40911;51.552;9.874;2023-09-08T13:53:13;2.47;;;1.52;;
13795;SDS011;40911;51.552;9.874;2023-09-08T13:55:35;3.20;;;1.90;;
13795;SDS011;40911;51.552;9.874;2023-09-08T13:57:57;1.98;;;1.75;;
13795;SDS011;40911;51.552;9.874;2023-09-08T14:00:19;4.30;;;1.80;;
13795;SDS011;40911;51.552;9.874;2023-09-08T14:02:41;2.00;;;1.80;;
13795;SDS011;40911;51.552;9.874;2023-09-08T14:05:03;1.95;;;1.70;;
13795;SDS011;40911;51.552;9.874;2023-09-08T14:07:25;1.88;;;1.67;;
13795;SDS011;40911;51.552;9.874;2023-09-08T14:09:48;1.85;;;1.63;;
13795;SDS011;40911;51.552;9.874;2023-09-08T14:12:09;1.70;;;1.50;;
13795;SDS011;40911;51.552;9.874;2023-09-08T14:14:31;2.47;;;1.90;;
13795;SDS011;40911;51.552;9.874;2023-09-08T14:16:53;2.95;;;1.63;;
13795;SDS011;40911;51.552;9.874;2023-09-08T14:19:14;3.50;;;1.88;;
13795;SDS011;40911;51.552;9.874;2023-09-08T14:21:36;3.50;;;1.73;;
13795;SDS011;40911;51.552;9.874;2023-09-08T14:23:59;3.38;;;2.00;;
13795;SDS011;40911;51.552;9.874;2023-09-08T14:26:21;2.33;;;1.77;;
13795;SDS011;40911;51.552;9.874;2023-09-08T14:28:43;3.33;;;1.88;;
13795;SDS011;40911;51.552;9.874;2023-09-08T14:31:05;2.55;;;1.80;;
13795;SDS011;40911;51.552;9.874;2023-09-08T14:33:26;4.40;;;2.08;;
13795;SDS011;40911;51.552;9.874;2023-09-08T14:35:48;2.65;;;2.03;;
13795;SDS011;40911;51.552;9.874;2023-09-08T14:38:12;3.30;;;1.98;;
13795;SDS011;40911;51.552;9.874;2023-09-08T14:40:36;3.47;;;1.77;;
13795;SDS011;40911;51.552;9.874;2023-09-08T14:42:59;2.30;;;1.92;;
13795;SDS011;40911;51.552;9.874;2023-09-08T14:45:21;3.72;;;1.77;;
13795;SDS011;40911;51.552;9.874;2023-09-08T14:47:43;3.20;;;2.08;;
13795;SDS011;40911;51.552;9.874;2023-09-08T14:50:05;2.10;;;1.90;;
13795;SDS011;40911;51.552;9.874;2023-09-08T14:52:27;3.67;;;2.25;;
13795;SDS011;40911;51.552;9.874;2023-09-08T14:54:49;4.03;;;2.08;;
13795;SDS011;40911;51.552;9.874;2023-09-08T14:57:10;2.83;;;1.90;;
13795;SDS011;40911;51.552;9.874;2023-09-08T14:59:33;6.97;;;2.20;;
13795;SDS011;40911;51.552;9.874;2023-09-08T15:01:55;2.38;;;2.10;;
13795;SDS011;40911;51.552;9.874;2023-09-08T15:04:17;5.68;;;2.60;;
13795;SDS011;40911;51.552;9.874;2023-09-08T15:06:38;3.70;;;2.20;;
13795;SDS011;40911;51.552;9.874;2023-09-08T15:09:00;4.50;;;2.50;;
13795;SDS011;40911;51.552;9.874;2023-09-08T15:11:22;2.78;;;2.40;;
13795;SDS011;40911;51.552;9.874;2023-09-08T15:13:44;2.35;;;2.13;;
13795;SDS011;40911;51.552;9.874;2023-09-08T15:16:07;4.15;;;2.15;;
13795;SDS011;40911;51.552;9.874;2023-09-08T15:18:29;3.00;;;2.10;;
13795;SDS011;40911;51.552;9.874;2023-09-08T15:20:51;3.50;;;2.30;;
13795;SDS011;40911;51.552;9.874;2023-09-08T15:23:13;5.30;;;2.10;;
13795;SDS011;40911;51.552;9.874;2023-09-08T15:25:35;8.13;;;2.30;;
13795;SDS011;40911;51.552;9.874;2023-09-08T15:27:56;2.22;;;2.00;;
13795;SDS011;40911;51.552;9.874;2023-09-08T15:30:18;3.70;;;2.03;;
13795;SDS011;40911;51.552;9.874;2023-09-08T15:32:41;3.70;;;2.40;;
13795;SDS011;40911;51.552;9.874;2023-09-08T15:35:05;3.25;;;2.40;;
13795;SDS011;40911;51.552;9.874;2023-09-08T15:37:27;4.15;;;2.40;;
13795;SDS011;40911;51.552;9.874;2023-09-08T15:39:49;4.03;;;2.42;;
13795;SDS011;40911;51.552;9.874;2023-09-08T15:42:11;3.47;;;2.80;;
13795;SDS011;40911;51.552;9.874;2023-09-08T15:44:33;4.30;;;2.53;;
13795;SDS011;40911;51.552;9.874;2023-09-08T15:46:55;4.00;;;2.88;;
13795;SDS011;40911;51.552;9.874;2023-09-08T15:49:18;5.03;;;2.72;;
13795;SDS011;40911;51.552;9.874;2023-09-08T15:51:40;4.28;;;2.70;;
13795;SDS011;40911;51.552;9.874;2023-09-08T15:54:02;2.72;;;2.38;;
13795;SDS011;40911;51.552;9.874;2023-09-08T15:56:26;5.32;;;2.60;;
13795;SDS011;40911;51.552;9.874;2023-09-08T15:58:47;4.95;;;2.80;;
13795;SDS011;40911;51.552;9.874;2023-09-08T16:01:09;3.38;;;3.08;;
13795;SDS011;40911;51.552;9.874;2023-09-08T16:03:32;7.10;;;3.33;;
13795;SDS011;40911;51.552;9.874;2023-09-08T16:05:55;6.35;;;3.72;;
13795;SDS011;40911;51.552;9.874;2023-09-08T16:08:17;5.65;;;3.33;;
13795;SDS011;40911;51.552;9.874;2023-09-08T16:10:38;4.45;;;3.55;;
13795;SDS011;40911;51.552;9.874;2023-09-08T16:13:00;4.20;;;3.80;;
13795;SDS011;40911;51.552;9.874;2023-09-08T16:15:22;8.13;;;4.43;;
13795;SDS011;40911;51.552;9.874;2023-09-08T16:17:44;4.22;;;3.80;;
13795;SDS011;40911;51.552;9.874;2023-09-08T16:20:06;3.30;;;3.00;;
13795;SDS011;40911;51.552;9.874;2023-09-08T16:22:30;5.20;;;2.50;;
13795;SDS011;40911;51.552;9.874;2023-09-08T16:24:52;6.47;;;3.40;;
13795;SDS011;40911;51.552;9.874;2023-09-08T16:27:13;4.25;;;3.30;;
13795;SDS011;40911;51.552;9.874;2023-09-08T16:29:36;7.00;;;3.58;;
13795;SDS011;40911;51.552;9.874;2023-09-08T16:31:59;4.88;;;3.20;;
13795;SDS011;40911;51.552;9.874;2023-09-08T16:34:21;6.43;;;3.63;;
13795;SDS011;40911;51.552;9.874;2023-09-08T16:36:42;6.05;;;3.58;;
13795;SDS011;40911;51.552;9.874;2023-09-08T16:39:06;10.43;;;5.00;;
13795;SDS011;40911;51.552;9.874;2023-09-08T16:41:27;7.95;;;4.20;;